createdAt,value
2023-03-06T00:01:08.769Z,0.68
2023-03-06T00:03:35.438Z,0.56
2023-03-06T00:06:02.249Z,0.65
2023-03-06T00:08:29.128Z,0.64
2023-03-06T00:10:56.587Z,0.55
2023-03-06T00:13:23.843Z,0.76
2023-03-06T00:15:50.431Z,0.61
2023-03-06T00:18:16.984Z,0.53
2023-03-06T00:20:44.335Z,0.71
2023-03-06T00:23:11.485Z,0.65
2023-03-06T00:25:41.673Z,0.71
2023-03-06T00:28:09.374Z,0.74
2023-03-06T00:30:36.296Z,0.57
2023-03-06T00:33:02.799Z,0.73
2023-03-06T00:35:30.522Z,0.69
2023-03-06T00:37:59.588Z,0.62
2023-03-06T00:40:26.483Z,0.61
2023-03-06T00:42:53.120Z,0.55
2023-03-06T00:45:19.838Z,0.63
2023-03-06T00:47:46.594Z,0.69
2023-03-06T00:50:14.592Z,0.59
2023-03-06T00:52:41.970Z,0.58
2023-03-06T00:55:09.747Z,0.58
2023-03-06T00:57:36.538Z,0.73
2023-03-06T01:00:05.285Z,0.57
2023-03-06T01:02:31.947Z,0.76
2023-03-06T01:04:58.510Z,0.50
2023-03-06T01:07:27.208Z,0.53
2023-03-06T01:09:53.777Z,0.68
2023-03-06T01:12:23.405Z,0.62
2023-03-06T01:14:51.055Z,0.57
2023-03-06T01:17:17.737Z,0.62
2023-03-06T01:19:44.245Z,0.47
2023-03-06T01:22:13.362Z,0.66
2023-03-06T01:24:39.812Z,0.47
2023-03-06T01:27:06.436Z,0.49
2023-03-06T01:29:32.982Z,0.47
2023-03-06T01:31:59.578Z,0.47
2023-03-06T01:34:26.221Z,0.63
2023-03-06T01:36:53.808Z,0.61
2023-03-06T01:39:20.343Z,0.58
2023-03-06T01:41:47.285Z,0.62
2023-03-06T01:44:13.839Z,0.59
2023-03-06T01:46:42.906Z,0.65
2023-03-06T01:49:26.152Z,0.45
2023-03-06T01:51:57.474Z,0.59
2023-03-06T01:54:28.345Z,0.57
2023-03-06T01:57:02.221Z,0.53
2023-03-06T01:59:29.588Z,0.46
2023-03-06T02:01:58.397Z,0.72
2023-03-06T02:04:25.083Z,0.68
2023-03-06T02:06:51.839Z,0.69
2023-03-06T02:09:18.562Z,0.62
2023-03-06T02:11:46.227Z,0.61
2023-03-06T02:14:15.608Z,0.62
2023-03-06T02:16:42.847Z,0.54
2023-03-06T02:19:39.261Z,0.52
2023-03-06T02:22:05.956Z,0.46
2023-03-06T02:24:48.311Z,0.55
2023-03-06T02:27:15.850Z,0.38
2023-03-06T02:29:42.437Z,0.50
2023-03-06T02:32:09.643Z,0.40
2023-03-06T02:34:39.078Z,0.39
2023-03-06T02:37:09.829Z,0.38
2023-03-06T02:39:41.453Z,0.17
2023-03-06T02:42:08.811Z,0.15
2023-03-06T02:44:36.331Z,0.29
2023-03-06T02:47:02.806Z,0.06
2023-03-06T02:49:29.253Z,0.13
2023-03-06T02:51:55.673Z,0.19
2023-03-06T02:54:22.146Z,-0.06
2023-03-06T02:56:49.462Z,-0.08
2023-03-06T02:59:16.074Z,0.16
2023-03-06T03:01:42.673Z,0.15
2023-03-06T03:04:09.610Z,0.03
2023-03-06T03:06:37.231Z,0.12
2023-03-06T03:09:03.945Z,0.19
2023-03-06T03:11:30.553Z,-0.09
2023-03-06T03:13:57.394Z,0.13
2023-03-06T03:16:26.305Z,0.09
2023-03-06T03:18:55.627Z,0.05
2023-03-06T03:21:23.077Z,0.04
2023-03-06T03:23:49.663Z,-0.06
2023-03-06T03:26:19.385Z,0.05
2023-03-06T03:28:56.624Z,0.06
2023-03-06T03:31:23.308Z,-0.01
2023-03-06T03:33:50.331Z,0.02
2023-03-06T03:36:18.483Z,0.08
2023-03-06T03:38:47.053Z,-0.10
2023-03-06T03:41:14.366Z,0.03
2023-03-06T03:43:42.888Z,-0.03
2023-03-06T03:46:09.700Z,-0.11
2023-03-06T03:48:36.438Z,-0.20
2023-03-06T03:51:09.041Z,-0.02
2023-03-06T03:53:39.812Z,0.13
2023-03-06T03:56:08.434Z,0.11
2023-03-06T03:58:42.196Z,-0.05
2023-03-06T04:01:08.747Z,-0.01
2023-03-06T04:03:36.238Z,0.01
2023-03-06T04:06:04.073Z,0.04
2023-03-06T04:08:30.945Z,-0.01
2023-03-06T04:10:57.575Z,0.05
2023-03-06T04:13:24.422Z,0.03
2023-03-06T04:15:54.478Z,0.19
2023-03-06T04:18:23.869Z,0.13
2023-03-06T04:20:52.793Z,0.15
2023-03-06T04:23:20.208Z,0.20
2023-03-06T04:25:46.904Z,0.12
2023-03-06T04:28:13.614Z,0.13
2023-03-06T04:30:40.259Z,0.17
2023-03-06T04:33:07.152Z,0.22
2023-03-06T04:35:34.092Z,0.21
2023-03-06T04:38:05.861Z,0.08
2023-03-06T04:40:35.512Z,0.15
2023-03-06T04:43:03.463Z,0.15
2023-03-06T04:45:31.313Z,0.03
2023-03-06T04:47:58.086Z,0.17
2023-03-06T04:50:25.993Z,0.23
2023-03-06T04:52:52.639Z,0.02
2023-03-06T04:55:19.782Z,0.19
2023-03-06T04:57:47.687Z,0.20
2023-03-06T05:00:20.746Z,0.05
2023-03-06T05:02:49.247Z,0.02
2023-03-06T05:05:16.939Z,0.34
2023-03-06T05:07:44.510Z,0.36
2023-03-06T05:10:15.749Z,0.30
2023-03-06T05:12:42.863Z,0.20
2023-03-06T05:15:11.000Z,0.21
2023-03-06T05:17:38.155Z,0.16
2023-03-06T05:20:06.958Z,0.13
2023-03-06T05:22:34.658Z,0.11
2023-03-06T05:25:01.205Z,0.15
2023-03-06T05:27:28.251Z,-0.08
2023-03-06T05:29:54.799Z,0.07
2023-03-06T05:32:21.786Z,0.01
2023-03-06T05:34:49.223Z,-0.02
2023-03-06T05:37:15.651Z,0.12
2023-03-06T05:39:42.553Z,0.11
2023-03-06T05:42:09.453Z,0.08
2023-03-06T05:44:36.640Z,0.13
2023-03-06T05:47:03.541Z,-0.23
2023-03-06T05:49:34.610Z,0.06
2023-03-06T05:52:04.003Z,-0.01
2023-03-06T05:54:34.746Z,-0.03
2023-03-06T05:57:01.487Z,-0.14
2023-03-06T05:59:29.056Z,0.02
2023-03-06T06:01:56.154Z,-0.05
2023-03-06T06:04:24.197Z,-0.30
2023-03-06T06:06:55.407Z,-0.03
2023-03-06T06:09:24.810Z,-0.01
2023-03-06T06:11:57.125Z,0.06
2023-03-06T06:14:23.637Z,0.03
2023-03-06T06:16:50.400Z,0.03
2023-03-06T06:19:20.409Z,0.08
2023-03-06T06:21:53.981Z,0.22
2023-03-06T06:24:22.661Z,0.15
2023-03-06T06:26:54.456Z,0.35
2023-03-06T06:29:22.247Z,0.49
2023-03-06T06:31:49.715Z,0.53
2023-03-06T06:34:16.400Z,0.54
2023-03-06T06:36:43.171Z,0.51
2023-03-06T06:39:10.986Z,0.59
2023-03-06T06:41:56.837Z,0.83
2023-03-06T06:44:23.978Z,0.74
2023-03-06T06:47:21.359Z,0.67
2023-03-06T06:49:37.788Z,0.73
2023-03-06T06:52:05.254Z,0.88
2023-03-06T06:54:32.869Z,0.76
2023-03-06T06:56:59.397Z,0.92
2023-03-06T06:59:26.097Z,0.96
2023-03-06T07:01:53.190Z,1.02
2023-03-06T07:04:20.141Z,0.94
2023-03-06T07:06:46.961Z,1.02
2023-03-06T07:09:14.108Z,0.99
2023-03-06T07:11:41.343Z,0.94
2023-03-06T07:14:07.994Z,1.04
2023-03-06T07:16:34.893Z,1.23
2023-03-06T07:19:01.480Z,1.19
2023-03-06T07:21:28.012Z,1.37
2023-03-06T07:23:57.172Z,1.40
2023-03-06T07:26:27.982Z,1.43
2023-03-06T07:28:54.924Z,1.34
2023-03-06T07:31:24.521Z,1.35
2023-03-06T07:33:52.402Z,1.36
2023-03-06T07:36:18.923Z,1.29
2023-03-06T07:38:45.440Z,1.45
2023-03-06T07:41:13.621Z,1.61
2023-03-06T07:43:41.291Z,1.51
2023-03-06T07:46:08.935Z,1.65
2023-03-06T07:48:37.131Z,1.58
2023-03-06T07:51:06.746Z,1.71
2023-03-06T07:53:34.093Z,1.61
2023-03-06T07:56:00.881Z,1.71
2023-03-06T07:58:27.455Z,1.66
2023-03-06T08:00:53.891Z,1.67
2023-03-06T08:03:20.347Z,1.65
2023-03-06T08:05:46.881Z,1.82
2023-03-06T08:08:13.352Z,1.73
2023-03-06T08:10:39.846Z,1.71
2023-03-06T08:13:06.362Z,1.83
2023-03-06T08:15:32.808Z,1.80
2023-03-06T08:17:59.327Z,1.80
2023-03-06T08:20:25.859Z,1.92
2023-03-06T08:22:52.322Z,1.88
2023-03-06T08:25:18.762Z,1.89
2023-03-06T08:27:47.325Z,2.08
2023-03-06T08:30:14.669Z,1.96
2023-03-06T08:32:41.243Z,1.86
2023-03-06T08:35:08.271Z,2.13
2023-03-06T08:37:34.817Z,2.27
2023-03-06T08:40:04.444Z,2.23
2023-03-06T08:42:31.990Z,2.39
2023-03-06T08:44:58.471Z,2.40
2023-03-06T08:47:24.945Z,2.40
2023-03-06T08:49:51.406Z,2.50
2023-03-06T08:52:19.742Z,2.60
2023-03-06T08:54:46.451Z,2.16
2023-03-06T08:57:12.882Z,2.30
2023-03-06T08:59:39.435Z,2.29
2023-03-06T09:02:07.523Z,2.42
2023-03-06T09:04:34.260Z,2.46
2023-03-06T09:07:00.992Z,2.57
2023-03-06T09:09:27.548Z,2.29
2023-03-06T09:11:54.847Z,2.69
2023-03-06T09:14:21.630Z,2.36
2023-03-06T09:16:48.104Z,2.56
2023-03-06T09:19:14.649Z,2.56
2023-03-06T09:21:41.904Z,2.59
2023-03-06T09:24:08.699Z,2.67
2023-03-06T09:26:45.613Z,2.31
2023-03-06T09:29:13.354Z,2.64
2023-03-06T09:31:39.880Z,2.49
2023-03-06T09:34:06.349Z,2.71
2023-03-06T09:36:42.796Z,2.55
2023-03-06T09:39:15.992Z,2.44
2023-03-06T09:41:42.600Z,2.84
2023-03-06T09:44:17.843Z,2.85
2023-03-06T09:47:00.315Z,2.91
2023-03-06T09:49:46.065Z,2.93
2023-03-06T09:52:26.335Z,2.88
2023-03-06T09:55:09.048Z,2.99
2023-03-06T09:57:40.844Z,3.09
2023-03-06T10:00:30.051Z,3.10
2023-03-06T10:03:15.248Z,3.30
2023-03-06T10:05:50.259Z,3.18
2023-03-06T10:08:26.125Z,3.47
2023-03-06T10:11:05.526Z,3.58
2023-03-06T10:13:43.395Z,3.44
2023-03-06T10:16:29.176Z,3.34
2023-03-06T10:19:05.209Z,3.51
2023-03-06T10:21:56.161Z,3.50
2023-03-06T10:24:30.390Z,3.34
2023-03-06T10:27:03.936Z,3.23
2023-03-06T10:30:01.736Z,3.32
2023-03-06T10:32:49.090Z,3.23
2023-03-06T10:35:21.579Z,3.19
2023-03-06T10:37:51.201Z,3.24
2023-03-06T10:40:22.518Z,3.20
2023-03-06T10:42:54.017Z,2.83
2023-03-06T10:45:29.936Z,3.22
2023-03-06T10:48:11.972Z,3.46
2023-03-06T10:50:38.513Z,3.25
2023-03-06T10:53:15.158Z,3.11
2023-03-06T10:55:52.427Z,3.26
2023-03-06T10:58:23.373Z,3.37
2023-03-06T11:01:06.792Z,3.33
2023-03-06T11:03:35.156Z,3.31
2023-03-06T11:06:13.876Z,3.13
2023-03-06T11:08:42.985Z,3.34
2023-03-06T11:11:18.542Z,3.19
2023-03-06T11:13:58.849Z,3.30
2023-03-06T11:16:30.601Z,3.16
2023-03-06T11:19:03.936Z,3.31
2023-03-06T11:21:34.052Z,3.45
2023-03-06T11:24:05.679Z,3.42
2023-03-06T11:26:46.703Z,3.40
2023-03-06T11:29:27.084Z,3.32
2023-03-06T11:32:34.973Z,3.38
2023-03-06T11:35:06.928Z,3.63
2023-03-06T11:37:45.622Z,3.58
2023-03-06T11:40:15.254Z,3.58
2023-03-06T11:43:26.837Z,3.51
2023-03-06T11:46:15.314Z,3.27
2023-03-06T11:48:46.488Z,3.07
2023-03-06T11:51:21.984Z,3.05
2023-03-06T11:53:48.767Z,2.99
2023-03-06T11:56:18.297Z,2.97
2023-03-06T11:59:07.652Z,2.96
2023-03-06T12:01:49.358Z,2.99
2023-03-06T12:04:58.106Z,2.99
2023-03-06T12:07:31.091Z,3.06
2023-03-06T12:10:10.040Z,2.99
2023-03-06T12:12:55.587Z,3.00
2023-03-06T12:15:31.093Z,2.99
2023-03-06T12:18:15.830Z,2.90
2023-03-06T12:21:00.353Z,2.95
2023-03-06T12:24:13.595Z,3.15
2023-03-06T12:27:01.834Z,3.20
2023-03-06T12:29:52.300Z,3.11
2023-03-06T12:33:10.870Z,3.36
2023-03-06T12:35:57.828Z,3.31
2023-03-06T12:38:33.392Z,3.40
2023-03-06T12:41:14.119Z,3.48
2023-03-06T12:44:05.543Z,3.52
2023-03-06T12:46:39.542Z,3.40
2023-03-06T12:49:23.010Z,3.30
2023-03-06T12:51:59.421Z,3.28
2023-03-06T12:54:29.957Z,3.44
2023-03-06T12:56:59.116Z,3.31
2023-03-06T12:59:53.618Z,3.18
2023-03-06T13:02:54.192Z,3.26
2023-03-06T13:05:32.795Z,3.24
2023-03-06T13:08:17.879Z,3.24
2023-03-06T13:11:03.576Z,3.15
2023-03-06T13:13:42.748Z,3.21
2023-03-06T13:16:32.236Z,3.24
2023-03-06T13:19:03.773Z,3.15
2023-03-06T13:21:42.444Z,3.36
2023-03-06T13:24:22.235Z,3.36
2023-03-06T13:26:51.796Z,3.43
2023-03-06T13:29:36.700Z,3.44
2023-03-06T13:32:04.371Z,3.40
2023-03-06T13:34:42.062Z,3.46
2023-03-06T13:37:18.365Z,3.33
2023-03-06T13:39:53.978Z,3.41
2023-03-06T13:42:37.933Z,3.17
2023-03-06T13:45:14.642Z,3.26
2023-03-06T13:48:19.558Z,3.11
2023-03-06T13:50:46.369Z,3.19
2023-03-06T13:53:46.359Z,3.23
2023-03-06T13:56:36.680Z,3.22
2023-03-06T13:59:39.333Z,3.09
2023-03-06T14:02:11.407Z,3.06
2023-03-06T14:04:54.685Z,3.02
2023-03-06T14:07:32.132Z,3.02
2023-03-06T14:10:13.938Z,3.16
2023-03-06T14:13:12.886Z,3.12
2023-03-06T14:15:54.685Z,3.02
2023-03-06T14:18:44.314Z,3.17
2023-03-06T14:21:13.459Z,3.16
2023-03-06T14:23:44.984Z,3.22
2023-03-06T14:26:17.351Z,3.31
2023-03-06T14:28:45.920Z,3.34
2023-03-06T14:31:21.273Z,3.46
2023-03-06T14:33:54.176Z,3.54
2023-03-06T14:36:24.185Z,3.35
2023-03-06T14:38:57.342Z,3.70
2023-03-06T14:41:30.170Z,3.53
2023-03-06T14:44:11.894Z,3.71
2023-03-06T14:46:38.497Z,3.63
2023-03-06T14:49:09.005Z,3.57
2023-03-06T14:51:42.802Z,3.54
2023-03-06T14:54:25.929Z,3.74
2023-03-06T14:56:57.592Z,3.69
2023-03-06T14:59:29.838Z,3.54
2023-03-06T15:02:00.752Z,3.58
2023-03-06T15:04:55.268Z,3.64
2023-03-06T15:07:30.294Z,3.52
2023-03-06T15:09:57.961Z,3.45
2023-03-06T15:12:24.424Z,3.45
2023-03-06T15:15:00.231Z,3.21
2023-03-06T15:17:43.439Z,3.47
2023-03-06T15:20:42.626Z,3.46
2023-03-06T15:23:16.023Z,3.33
2023-03-06T15:25:52.015Z,3.36
2023-03-06T15:28:30.653Z,3.40
2023-03-06T15:31:17.374Z,3.32
2023-03-06T15:33:44.299Z,3.24
2023-03-06T15:36:20.921Z,3.38
2023-03-06T15:38:47.810Z,3.17
2023-03-06T15:41:31.897Z,3.24
2023-03-06T15:44:00.421Z,3.18
2023-03-06T15:46:27.569Z,3.29
2023-03-06T15:49:01.090Z,3.27
2023-03-06T15:51:29.363Z,3.34
2023-03-06T15:54:09.870Z,3.30
2023-03-06T15:56:43.956Z,3.33
2023-03-06T15:59:25.073Z,3.29
2023-03-06T16:01:52.320Z,3.21
2023-03-06T16:04:19.719Z,3.21
2023-03-06T16:06:46.369Z,3.20
2023-03-06T16:09:13.934Z,3.19
2023-03-06T16:11:46.756Z,3.06
2023-03-06T16:14:23.611Z,3.09
2023-03-06T16:16:51.992Z,3.05
2023-03-06T16:19:27.095Z,3.13
2023-03-06T16:21:55.567Z,3.05
2023-03-06T16:24:22.457Z,3.07
2023-03-06T16:26:51.454Z,3.14
2023-03-06T16:29:21.593Z,3.26
2023-03-06T16:31:48.603Z,2.99
2023-03-06T16:34:15.958Z,3.09
2023-03-06T16:36:42.597Z,3.09
2023-03-06T16:39:14.446Z,3.08
2023-03-06T16:41:40.963Z,3.04
2023-03-06T16:44:32.488Z,3.00
2023-03-06T16:47:00.816Z,3.01
2023-03-06T16:49:27.707Z,2.96
2023-03-06T16:51:54.594Z,2.90
2023-03-06T16:54:23.152Z,2.96
2023-03-06T16:56:49.896Z,2.91
2023-03-06T16:59:16.367Z,2.81
2023-03-06T17:01:43.262Z,2.83
2023-03-06T17:04:10.725Z,2.92
2023-03-06T17:06:37.915Z,2.69
2023-03-06T17:09:04.691Z,2.72
2023-03-06T17:11:31.230Z,2.46
2023-03-06T17:13:57.836Z,2.77
2023-03-06T17:16:24.405Z,2.64
2023-03-06T17:18:50.933Z,2.72
2023-03-06T17:21:17.498Z,2.70
2023-03-06T17:23:44.531Z,2.73
2023-03-06T17:26:14.008Z,2.67
2023-03-06T17:28:42.222Z,2.68
2023-03-06T17:31:13.021Z,2.62
2023-03-06T17:33:39.864Z,2.55
2023-03-06T17:36:06.823Z,2.53
2023-03-06T17:38:33.393Z,2.43
2023-03-06T17:41:04.598Z,2.60
2023-03-06T17:43:31.576Z,2.59
2023-03-06T17:46:02.345Z,2.35
2023-03-06T17:48:29.056Z,2.43
2023-03-06T17:50:56.001Z,2.32
2023-03-06T17:53:23.158Z,2.53
2023-03-06T17:55:49.715Z,2.58
2023-03-06T17:58:16.287Z,2.55
2023-03-06T18:00:43.512Z,2.57
2023-03-06T18:03:10.208Z,2.30
2023-03-06T18:05:36.943Z,2.49
2023-03-06T18:08:03.562Z,2.43
2023-03-06T18:10:30.014Z,2.58
2023-03-06T18:12:56.715Z,2.66
2023-03-06T18:15:23.394Z,2.47
2023-03-06T18:17:50.116Z,2.33
2023-03-06T18:20:17.001Z,2.64
2023-03-06T18:22:43.462Z,2.56
2023-03-06T18:25:10.035Z,2.48
2023-03-06T18:27:37.190Z,2.60
2023-03-06T18:30:04.746Z,2.40
2023-03-06T18:32:31.549Z,2.44
2023-03-06T18:34:58.120Z,2.52
2023-03-06T18:37:24.659Z,2.51
2023-03-06T18:39:51.202Z,2.40
2023-03-06T18:42:18.390Z,2.43
2023-03-06T18:44:47.763Z,2.51
2023-03-06T18:47:15.508Z,2.54
2023-03-06T18:49:44.177Z,2.62
2023-03-06T18:52:12.166Z,2.50
2023-03-06T18:54:38.892Z,2.53
2023-03-06T18:57:05.475Z,2.71
2023-03-06T18:59:32.022Z,2.64
2023-03-06T19:01:59.306Z,2.55
2023-03-06T19:04:27.005Z,2.34
2023-03-06T19:06:54.710Z,2.42
2023-03-06T19:09:22.249Z,2.41
2023-03-06T19:11:49.579Z,2.38
2023-03-06T19:14:16.640Z,2.41
2023-03-06T19:16:43.305Z,2.45
2023-03-06T19:19:10.036Z,2.36
2023-03-06T19:21:36.624Z,2.34
2023-03-06T19:24:03.371Z,2.41
2023-03-06T19:26:29.926Z,2.25
2023-03-06T19:28:56.433Z,2.36
2023-03-06T19:31:25.987Z,2.31
2023-03-06T19:33:53.742Z,2.25
2023-03-06T19:36:23.751Z,2.24
2023-03-06T19:38:57.284Z,2.25
2023-03-06T19:41:24.330Z,2.15
2023-03-06T19:43:53.707Z,2.24
2023-03-06T19:46:21.339Z,2.13
2023-03-06T19:48:48.942Z,2.16
2023-03-06T19:51:15.448Z,1.90
2023-03-06T19:53:41.978Z,2.01
2023-03-06T20:00:26.890Z,2.13
2023-03-06T20:02:53.372Z,2.11
2023-03-06T20:05:20.083Z,2.36
2023-03-06T20:07:46.648Z,2.22
2023-03-06T20:10:13.203Z,2.18
2023-03-06T20:12:39.818Z,2.19
2023-03-06T20:15:07.409Z,1.94
2023-03-06T20:17:34.561Z,2.13
2023-03-06T20:20:01.940Z,2.12
2023-03-06T20:22:28.444Z,1.99
2023-03-06T20:24:54.998Z,2.18
2023-03-06T20:27:21.541Z,2.02
2023-03-06T20:29:48.071Z,2.03
2023-03-06T20:32:14.645Z,2.03
2023-03-06T20:34:41.220Z,2.10
2023-03-06T20:37:09.590Z,2.08
2023-03-06T20:39:37.289Z,2.03
2023-03-06T20:42:14.311Z,1.93
2023-03-06T20:44:40.985Z,1.93
2023-03-06T20:47:08.856Z,1.93
2023-03-06T20:49:36.758Z,2.08
2023-03-06T20:52:03.584Z,2.14
2023-03-06T20:54:30.168Z,1.99
2023-03-06T20:56:56.760Z,2.11
2023-03-06T20:59:23.797Z,2.16
2023-03-06T21:01:50.352Z,2.03
2023-03-06T21:04:17.256Z,2.02
2023-03-06T21:06:46.665Z,2.03
2023-03-06T21:09:15.854Z,1.81
2023-03-06T21:14:24.216Z,2.03
2023-03-06T21:17:47.587Z,2.01
2023-03-06T21:20:15.138Z,1.74
2023-03-06T21:22:41.655Z,2.05
2023-03-06T21:25:12.742Z,2.08
2023-03-06T21:28:01.280Z,2.09
2023-03-06T21:30:30.478Z,1.99
2023-03-06T21:32:56.977Z,2.00
2023-03-06T21:35:23.578Z,1.96
2023-03-06T21:37:50.320Z,1.93
2023-03-06T21:40:17.088Z,1.97
2023-03-06T21:42:45.926Z,1.83
2023-03-06T21:45:12.633Z,1.92
2023-03-06T21:47:42.181Z,1.94
2023-03-06T21:50:10.974Z,1.97
2023-03-06T21:52:37.593Z,1.88
2023-03-06T21:55:04.533Z,1.92
2023-03-06T21:57:31.109Z,1.88
2023-03-06T21:59:57.748Z,1.95
2023-03-06T22:02:24.238Z,1.80
2023-03-06T22:04:52.499Z,1.61
2023-03-06T22:07:19.915Z,1.90
2023-03-06T22:09:47.243Z,1.87
2023-03-06T22:12:16.263Z,2.03
2023-03-06T22:14:45.831Z,1.90
2023-03-06T22:17:12.441Z,1.82
2023-03-06T22:19:39.295Z,1.77
2023-03-06T22:22:05.808Z,1.75
2023-03-06T22:24:32.299Z,1.46
2023-03-06T22:26:58.788Z,1.85
2023-03-06T22:29:25.705Z,2.02
2023-03-06T22:31:52.763Z,1.76
2023-03-06T22:34:19.335Z,1.83
2023-03-06T22:36:45.873Z,1.92
2023-03-06T22:39:13.182Z,1.90
2023-03-06T22:41:39.845Z,1.85
2023-03-06T22:44:06.407Z,1.74
2023-03-06T22:46:33.087Z,1.65
2023-03-06T22:49:00.308Z,1.79
2023-03-06T22:51:28.036Z,1.85
2023-03-06T22:53:54.492Z,1.55
2023-03-06T22:56:21.833Z,1.81
2023-03-06T22:58:48.481Z,1.68
2023-03-06T23:01:18.300Z,1.76
2023-03-06T23:03:47.764Z,1.72
2023-03-06T23:06:21.245Z,1.80
2023-03-06T23:08:54.428Z,1.73
2023-03-06T23:11:22.637Z,1.70
2023-03-06T23:14:08.172Z,1.82
2023-03-06T23:16:53.175Z,1.80
2023-03-06T23:19:38.623Z,1.79
2023-03-06T23:22:23.756Z,1.89
2023-03-06T23:25:09.209Z,1.81
2023-03-06T23:27:36.407Z,1.90
2023-03-06T23:30:08.902Z,1.77
2023-03-06T23:32:35.580Z,1.81
2023-03-06T23:35:02.118Z,1.66
2023-03-06T23:37:28.628Z,1.71
2023-03-06T23:39:55.401Z,1.58
2023-03-06T23:42:22.597Z,1.72
2023-03-06T23:44:49.161Z,1.47
2023-03-06T23:47:17.162Z,1.72
2023-03-06T23:49:43.694Z,1.79
2023-03-06T23:52:10.191Z,1.61
2023-03-06T23:54:36.718Z,1.49
2023-03-06T23:57:10.557Z,1.43
2023-03-06T23:59:37.267Z,1.59
